Date,TemperatureHighF,TemperatureAvgF,TemperatureLowF,DewpointHighF,DewpointAvgF,DewpointLowF,HumidityHigh,HumidityAvg,HumidityLow,PressureMaxIn,PressureMinIn,WindSpeedMaxMPH,WindSpeedAvgMPH,GustSpeedMaxMPH,PrecipitationSumIn
2013-10-1,51.8,39.1,31.9,44.6,34.8,29.1,91,85,65,29.90,29.79,8,1,11,0.00
2013-10-2,54.5,38.7,28.4,38.7,31.8,25.7,91,78,40,29.91,29.67,3,0,9,0.00
2013-10-3,47.9,41.1,34.9,36.4,31.7,24.7,90,71,43,29.99,29.67,10,1,15,0.01
2013-10-4,55.3,37.2,27.2,34.3,27.7,23.2,89,71,35,30.20,29.99,5,1,6,0.00
2013-10-5,60.8,37.9,26.5,34.9,28.7,23.0,92,73,27,30.25,30.12,4,1,6,0.00
2013-10-6,68.8,41.6,27.9,38.7,31.9,24.9,93,73,26,30.18,29.91,7,1,8,0.00
2013-10-7,64.4,43.1,30.2,38.8,31.4,23.4,91,68,24,29.92,29.72,9,1,11,0.00
2013-10-8,52.2,39.4,29.2,35.1,30.1,25.4,86,71,41,29.78,29.69,7,1,10,0.00
2013-10-9,60.3,38.7,27.4,37.7,30.7,23.7,88,75,39,29.73,29.57,6,1,6,0.00
2013-10-10,55.6,40.4,30.6,38.7,33.1,27.8,90,77,50,29.74,29.58,6,1,10,0.00
2013-10-11,55.1,37.2,26.3,34.7,28.4,23.0,92,74,34,29.86,29.74,8,1,8,0.00
2013-10-12,54.4,40.4,30.8,37.6,32.1,27.1,89,74,45,29.84,29.73,5,0,6,0.00
2013-10-13,55.3,41.3,30.2,42.1,34.0,27.4,92,76,48,29.92,29.79,4,0,7,0.00
2013-10-14,55.1,37.2,26.5,36.6,28.6,23.2,92,74,38,30.05,29.93,6,1,10,0.00
2013-10-15,55.1,35.9,25.0,32.9,27.4,21.4,90,73,40,30.14,29.99,5,1,5,0.00
2013-10-16,55.6,36.2,25.7,35.1,27.1,22.2,88,73,33,30.02,29.87,7,1,7,0.00
2013-10-17,56.9,35.7,25.0,35.6,27.4,21.3,90,74,40,29.98,29.87,7,1,9,0.00
2013-10-18,57.2,35.7,24.8,34.5,26.9,21.2,91,73,34,30.10,29.96,5,1,6,0.00
2013-10-19,61.6,39.3,25.2,35.1,28.4,21.9,89,68,31,30.04,29.88,3,1,5,0.00
2013-10-20,62.5,38.7,27.0,36.6,29.5,23.0,90,72,36,29.95,29.85,6,1,6,0.00
2013-10-21,62.8,40.0,27.7,38.4,31.0,24.0,92,73,36,30.05,29.94,4,1,5,0.00
2013-10-22,64.8,40.2,28.4,41.0,31.9,25.4,92,75,37,30.07,29.92,4,1,4,0.00
2013-10-23,65.7,40.1,28.4,40.7,31.7,25.4,92,75,33,30.01,29.88,6,1,6,0.00
2013-10-24,64.4,40.2,28.1,39.6,31.2,24.7,92,73,39,30.00,29.87,4,1,4,0.00
2013-10-25,65.3,39.6,27.7,37.5,30.1,24.0,91,72,30,30.07,29.97,4,1,5,0.00
2013-10-26,64.1,38.6,27.7,37.8,29.7,24.3,91,73,28,30.14,29.97,7,1,7,0.00
2013-10-27,62.5,39.6,26.1,37.5,28.4,22.3,90,68,28,29.97,29.40,4,1,6,0.00
2013-10-28,52.9,41.6,35.5,39.5,34.3,28.8,92,77,47,29.56,29.35,10,2,15,0.01
2013-10-29,49.7,37.4,30.6,37.3,31.9,27.8,92,82,54,29.78,29.55,4,1,5,0.00
2013-10-30,41.6,35.1,29.9,33.9,30.4,26.8,89,83,70,29.88,29.77,4,0,4,0.00